sensor_id;sensor_type;location;lat;lon;timestamp;pressure;altitude;pressure_sealevel;temperature;humidity
64354;BME280;50681;53.334;-6.536;2023-03-04T00:02:04;102777.53;;;4.67;100.00
64354;BME280;50681;53.334;-6.536;2023-03-04T00:04:29;102782.03;;;4.66;100.00
64354;BME280;50681;53.334;-6.536;2023-03-04T00:06:55;102775.22;;;4.64;100.00
64354;BME280;50681;53.334;-6.536;2023-03-04T00:09:20;102760.13;;;4.56;100.00
64354;BME280;50681;53.334;-6.536;2023-03-04T00:11:46;102759.69;;;4.52;100.00
64354;BME280;50681;53.334;-6.536;2023-03-04T00:14:11;102774.84;;;4.67;100.00
64354;BME280;50681;53.334;-6.536;2023-03-04T00:16:37;102778.53;;;4.66;100.00
64354;BME280;50681;53.334;-6.536;2023-03-04T00:19:04;102761.16;;;4.55;100.00
64354;BME280;50681;53.334;-6.536;2023-03-04T00:21:30;102762.81;;;4.56;100.00
64354;BME280;50681;53.334;-6.536;2023-03-04T00:23:55;102753.50;;;4.52;100.00
64354;BME280;50681;53.334;-6.536;2023-03-04T00:26:21;102772.94;;;4.61;100.00
64354;BME280;50681;53.334;-6.536;2023-03-04T00:28:47;102750.59;;;4.47;100.00
64354;BME280;50681;53.334;-6.536;2023-03-04T00:31:12;102759.69;;;4.52;100.00
64354;BME280;50681;53.334;-6.536;2023-03-04T00:33:38;102777.03;;;4.56;100.00
64354;BME280;50681;53.334;-6.536;2023-03-04T00:36:04;102768.16;;;4.56;100.00
64354;BME280;50681;53.334;-6.536;2023-03-04T00:38:30;102746.66;;;4.43;100.00
64354;BME280;50681;53.334;-6.536;2023-03-04T00:40:55;102756.00;;;4.53;100.00
64354;BME280;50681;53.334;-6.536;2023-03-04T00:43:21;102745.09;;;4.55;100.00
64354;BME280;50681;53.334;-6.536;2023-03-04T00:45:47;102743.03;;;4.50;100.00
64354;BME280;50681;53.334;-6.536;2023-03-04T00:48:13;102720.09;;;4.41;100.00
64354;BME280;50681;53.334;-6.536;2023-03-04T00:50:40;102728.38;;;4.46;100.00
64354;BME280;50681;53.334;-6.536;2023-03-04T00:53:06;102730.44;;;4.51;100.00
64354;BME280;50681;53.334;-6.536;2023-03-04T00:55:31;102747.97;;;4.53;100.00
64354;BME280;50681;53.334;-6.536;2023-03-04T00:57:56;102753.19;;;4.62;100.00
64354;BME280;50681;53.334;-6.536;2023-03-04T01:00:22;102756.03;;;4.60;100.00
64354;BME280;50681;53.334;-6.536;2023-03-04T01:02:48;102743.19;;;4.49;100.00
64354;BME280;50681;53.334;-6.536;2023-03-04T01:05:14;102750.19;;;4.50;100.00
64354;BME280;50681;53.334;-6.536;2023-03-04T01:07:39;102749.81;;;4.53;100.00
64354;BME280;50681;53.334;-6.536;2023-03-04T01:10:06;102761.38;;;4.53;100.00
64354;BME280;50681;53.334;-6.536;2023-03-04T01:12:31;102741.53;;;4.48;100.00
64354;BME280;50681;53.334;-6.536;2023-03-04T01:14:57;102760.09;;;4.49;100.00
64354;BME280;50681;53.334;-6.536;2023-03-04T01:17:22;102765.44;;;4.49;100.00
64354;BME280;50681;53.334;-6.536;2023-03-04T01:19:48;102750.59;;;4.47;100.00
64354;BME280;50681;53.334;-6.536;2023-03-04T01:22:13;102773.91;;;4.53;100.00
64354;BME280;50681;53.334;-6.536;2023-03-04T01:24:41;102769.94;;;4.49;100.00
64354;BME280;50681;53.334;-6.536;2023-03-04T01:27:06;102773.72;;;4.54;100.00
64354;BME280;50681;53.334;-6.536;2023-03-04T01:29:32;102784.03;;;4.58;100.00
64354;BME280;50681;53.334;-6.536;2023-03-04T01:31:57;102779.06;;;4.54;100.00
64354;BME280;50681;53.334;-6.536;2023-03-04T01:34:23;102779.06;;;4.54;100.00
64354;BME280;50681;53.334;-6.536;2023-03-04T01:36:48;102766.59;;;4.40;100.00
64354;BME280;50681;53.334;-6.536;2023-03-04T01:39:14;102749.66;;;4.33;100.00
64354;BME280;50681;53.334;-6.536;2023-03-04T01:41:39;102765.81;;;4.46;100.00
64354;BME280;50681;53.334;-6.536;2023-03-04T01:44:05;102773.84;;;4.46;100.00
64354;BME280;50681;53.334;-6.536;2023-03-04T01:46:31;102760.63;;;4.38;100.00
64354;BME280;50681;53.334;-6.536;2023-03-04T01:48:57;102768.03;;;4.43;100.00
64354;BME280;50681;53.334;-6.536;2023-03-04T01:51:22;102760.16;;;4.34;100.00
64354;BME280;50681;53.334;-6.536;2023-03-04T01:53:49;102763.28;;;4.38;100.00
64354;BME280;50681;53.334;-6.536;2023-03-04T01:56:29;102757.94;;;4.38;100.00
64354;BME280;50681;53.334;-6.536;2023-03-04T01:59:17;102755.44;;;4.36;100.00
64354;BME280;50681;53.334;-6.536;2023-03-04T02:01:43;102754.00;;;4.34;100.00
64354;BME280;50681;53.334;-6.536;2023-03-04T02:04:10;102735.84;;;4.29;100.00
64354;BME280;50681;53.334;-6.536;2023-03-04T02:06:36;102749.03;;;4.31;100.00
64354;BME280;50681;53.334;-6.536;2023-03-04T02:09:10;102738.50;;;4.29;100.00
64354;BME280;50681;53.334;-6.536;2023-03-04T02:11:37;102739.75;;;4.26;100.00
64354;BME280;50681;53.334;-6.536;2023-03-04T02:14:03;102752.34;;;4.33;100.00
64354;BME280;50681;53.334;-6.536;2023-03-04T02:16:30;102722.56;;;4.14;100.00
64354;BME280;50681;53.334;-6.536;2023-03-04T02:18:56;102725.22;;;4.14;100.00
64354;BME280;50681;53.334;-6.536;2023-03-04T02:21:30;102724.38;;;4.14;100.00
64354;BME280;50681;53.334;-6.536;2023-03-04T02:26:53;102747.13;;;4.24;100.00
64354;BME280;50681;53.334;-6.536;2023-03-04T02:29:18;102757.44;;;4.28;100.00
64354;BME280;50681;53.334;-6.536;2023-03-04T02:31:46;102744.56;;;4.16;100.00
64354;BME280;50681;53.334;-6.536;2023-03-04T02:36:43;102748.41;;;4.29;100.00
64354;BME280;50681;53.334;-6.536;2023-03-04T02:41:51;102734.78;;;4.23;100.00
64354;BME280;50681;53.334;-6.536;2023-03-04T02:44:22;102737.69;;;4.29;100.00
64354;BME280;50681;53.334;-6.536;2023-03-04T02:46:49;102747.00;;;4.33;100.00
64354;BME280;50681;53.334;-6.536;2023-03-04T02:49:16;102731.47;;;4.21;100.00
64354;BME280;50681;53.334;-6.536;2023-03-04T02:51:41;102729.81;;;4.20;100.00
64354;BME280;50681;53.334;-6.536;2023-03-04T02:54:15;102729.16;;;4.18;100.00
64354;BME280;50681;53.334;-6.536;2023-03-04T02:56:48;102740.94;;;4.24;100.00
64354;BME280;50681;53.334;-6.536;2023-03-04T02:59:14;102739.28;;;4.23;100.00
64354;BME280;50681;53.334;-6.536;2023-03-04T03:01:40;102725.88;;;4.16;100.00
64354;BME280;50681;53.334;-6.536;2023-03-04T03:04:06;102736.22;;;4.26;100.00
64354;BME280;50681;53.334;-6.536;2023-03-04T03:06:31;102728.06;;;4.12;100.00
64354;BME280;50681;53.334;-6.536;2023-03-04T03:08:56;102730.97;;;4.11;100.00
64354;BME280;50681;53.334;-6.536;2023-03-04T03:11:22;102739.88;;;4.18;100.00
64354;BME280;50681;53.334;-6.536;2023-03-04T03:13:47;102708.84;;;4.02;100.00
64354;BME280;50681;53.334;-6.536;2023-03-04T03:16:13;102716.09;;;4.08;100.00
64354;BME280;50681;53.334;-6.536;2023-03-04T03:18:38;102735.53;;;4.17;100.00
64354;BME280;50681;53.334;-6.536;2023-03-04T03:21:05;102726.88;;;4.15;100.00
64354;BME280;50681;53.334;-6.536;2023-03-04T03:23:32;102710.72;;;4.02;100.00
64354;BME280;50681;53.334;-6.536;2023-03-04T03:26:01;102729.44;;;4.02;100.00
64354;BME280;50681;53.334;-6.536;2023-03-04T03:28:27;102724.50;;;4.05;100.00
64354;BME280;50681;53.334;-6.536;2023-03-04T03:30:53;102713.78;;;3.99;100.00
64354;BME280;50681;53.334;-6.536;2023-03-04T03:33:18;102708.81;;;3.95;100.00
64354;BME280;50681;53.334;-6.536;2023-03-04T03:35:44;102709.44;;;3.97;100.00
64354;BME280;50681;53.334;-6.536;2023-03-04T03:38:09;102718.75;;;4.02;100.00
64354;BME280;50681;53.334;-6.536;2023-03-04T03:40:35;102710.72;;;4.02;100.00
64354;BME280;50681;53.334;-6.536;2023-03-04T03:43:00;102713.00;;;4.05;100.00
64354;BME280;50681;53.334;-6.536;2023-03-04T03:45:26;102710.34;;;4.05;100.00
64354;BME280;50681;53.334;-6.536;2023-03-04T03:47:51;102711.16;;;4.05;100.00
64354;BME280;50681;53.334;-6.536;2023-03-04T03:50:16;102689.22;;;3.88;100.00
64354;BME280;50681;53.334;-6.536;2023-03-04T03:52:42;102696.22;;;3.89;100.00
64354;BME280;50681;53.334;-6.536;2023-03-04T03:55:08;102718.34;;;4.05;100.00
64354;BME280;50681;53.334;-6.536;2023-03-04T03:57:33;102712.00;;;3.84;100.00
64354;BME280;50681;53.334;-6.536;2023-03-04T03:59:59;102720.13;;;3.97;100.00
64354;BME280;50681;53.334;-6.536;2023-03-04T04:02:24;102717.00;;;3.94;100.00
64354;BME280;50681;53.334;-6.536;2023-03-04T04:04:49;102717.63;;;3.96;100.00
64354;BME280;50681;53.334;-6.536;2023-03-04T04:07:15;102711.59;;;3.87;100.00
64354;BME280;50681;53.334;-6.536;2023-03-04T04:09:41;102710.22;;;3.91;100.00
64354;BME280;50681;53.334;-6.536;2023-03-04T04:12:07;102708.94;;;3.87;100.00
64354;BME280;50681;53.334;-6.536;2023-03-04T04:14:32;102706.00;;;3.82;100.00
64354;BME280;50681;53.334;-6.536;2023-03-04T04:16:59;102727.13;;;3.99;100.00
64354;BME280;50681;53.334;-6.536;2023-03-04T04:19:24;102699.19;;;3.79;100.00
64354;BME280;50681;53.334;-6.536;2023-03-04T04:21:50;102723.81;;;3.96;100.00
64354;BME280;50681;53.334;-6.536;2023-03-04T04:24:15;102730.19;;;3.95;100.00
64354;BME280;50681;53.334;-6.536;2023-03-04T04:26:41;102699.81;;;3.81;100.00
64354;BME280;50681;53.334;-6.536;2023-03-04T04:29:12;102726.63;;;3.88;100.00
64354;BME280;50681;53.334;-6.536;2023-03-04T04:31:38;102703.44;;;3.74;100.00
64354;BME280;50681;53.334;-6.536;2023-03-04T04:34:03;102703.06;;;3.77;100.00
64354;BME280;50681;53.334;-6.536;2023-03-04T04:36:29;102712.53;;;3.79;100.00
64354;BME280;50681;53.334;-6.536;2023-03-04T04:38:54;102712.00;;;3.84;100.00
64354;BME280;50681;53.334;-6.536;2023-03-04T04:41:28;102695.56;;;3.65;100.00
64354;BME280;50681;53.334;-6.536;2023-03-04T04:43:54;102699.69;;;3.68;100.00
64354;BME280;50681;53.334;-6.536;2023-03-04T04:46:20;102704.09;;;3.76;100.00
64354;BME280;50681;53.334;-6.536;2023-03-04T04:48:45;102707.78;;;3.75;100.00
64354;BME280;50681;53.334;-6.536;2023-03-04T04:51:11;102719.78;;;3.86;100.00
64354;BME280;50681;53.334;-6.536;2023-03-04T04:53:37;102714.03;;;3.82;100.00
64354;BME280;50681;53.334;-6.536;2023-03-04T04:56:17;102695.81;;;3.71;100.00
64354;BME280;50681;53.334;-6.536;2023-03-04T04:58:43;102702.81;;;3.72;100.00
64354;BME280;50681;53.334;-6.536;2023-03-04T05:01:09;102722.94;;;3.89;100.00
64354;BME280;50681;53.334;-6.536;2023-03-04T05:03:36;102706.31;;;3.72;100.00
64354;BME280;50681;53.334;-6.536;2023-03-04T05:06:03;102736.53;;;3.73;100.00
64354;BME280;50681;53.334;-6.536;2023-03-04T05:08:29;102723.81;;;3.75;100.00
64354;BME280;50681;53.334;-6.536;2023-03-04T05:10:55;102698.09;;;3.52;100.00
64354;BME280;50681;53.334;-6.536;2023-03-04T05:13:20;102730.19;;;3.74;100.00
64354;BME280;50681;53.334;-6.536;2023-03-04T05:15:46;102720.25;;;3.67;100.00
64354;BME280;50681;53.334;-6.536;2023-03-04T05:18:12;102730.47;;;3.64;100.00
64354;BME280;50681;53.334;-6.536;2023-03-04T05:20:37;102721.00;;;3.61;100.00
64354;BME280;50681;53.334;-6.536;2023-03-04T05:23:03;102719.72;;;3.57;100.00
64354;BME280;50681;53.334;-6.536;2023-03-04T05:25:28;102720.03;;;3.69;100.00
64354;BME280;50681;53.334;-6.536;2023-03-04T05:27:54;102738.19;;;3.74;100.00
64354;BME280;50681;53.334;-6.536;2023-03-04T05:30:19;102717.03;;;3.57;100.00
64354;BME280;50681;53.334;-6.536;2023-03-04T05:32:44;102716.47;;;3.62;100.00
64354;BME280;50681;53.334;-6.536;2023-03-04T05:35:10;102741.63;;;3.67;100.00
64354;BME280;50681;53.334;-6.536;2023-03-04T05:37:35;102711.06;;;3.55;100.00
64354;BME280;50681;53.334;-6.536;2023-03-04T05:40:01;102739.97;;;3.66;100.00
64354;BME280;50681;53.334;-6.536;2023-03-04T05:42:26;102708.75;;;3.52;100.00
64354;BME280;50681;53.334;-6.536;2023-03-04T05:44:52;102722.00;;;3.60;100.00
64354;BME280;50681;53.334;-6.536;2023-03-04T05:47:17;102729.19;;;3.60;100.00
64354;BME280;50681;53.334;-6.536;2023-03-04T05:49:42;102737.56;;;3.72;100.00
64354;BME280;50681;53.334;-6.536;2023-03-04T05:52:09;102731.69;;;3.61;100.00
64354;BME280;50681;53.334;-6.536;2023-03-04T05:54:35;102741.41;;;3.69;100.00
64354;BME280;50681;53.334;-6.536;2023-03-04T05:57:00;102741.25;;;3.71;100.00
64354;BME280;50681;53.334;-6.536;2023-03-04T05:59:26;102748.28;;;3.78;100.00
64354;BME280;50681;53.334;-6.536;2023-03-04T06:01:52;102734.63;;;3.66;100.00
64354;BME280;50681;53.334;-6.536;2023-03-04T06:04:18;102747.66;;;3.76;100.00
64354;BME280;50681;53.334;-6.536;2023-03-04T06:06:43;102749.13;;;3.79;100.00
64354;BME280;50681;53.334;-6.536;2023-03-04T06:09:10;102724.94;;;3.65;100.00
64354;BME280;50681;53.334;-6.536;2023-03-04T06:11:36;102741.50;;;3.76;100.00
64354;BME280;50681;53.334;-6.536;2023-03-04T06:14:02;102743.31;;;3.75;100.00
64354;BME280;50681;53.334;-6.536;2023-03-04T06:16:27;102736.44;;;3.66;100.00
64354;BME280;50681;53.334;-6.536;2023-03-04T06:18:52;102748.50;;;3.77;100.00
64354;BME280;50681;53.334;-6.536;2023-03-04T06:21:18;102750.66;;;3.66;100.00
64354;BME280;50681;53.334;-6.536;2023-03-04T06:23:43;102738.69;;;3.62;100.00
64354;BME280;50681;53.334;-6.536;2023-03-04T06:26:09;102730.25;;;3.44;100.00
64354;BME280;50681;53.334;-6.536;2023-03-04T06:28:42;102747.13;;;3.66;100.00
64354;BME280;50681;53.334;-6.536;2023-03-04T06:31:08;102739.44;;;3.56;100.00
64354;BME280;50681;53.334;-6.536;2023-03-04T06:33:34;102759.03;;;3.63;100.00
64354;BME280;50681;53.334;-6.536;2023-03-04T06:35:59;102734.47;;;3.53;100.00
64354;BME280;50681;53.334;-6.536;2023-03-04T06:38:25;102737.13;;;3.53;100.00
64354;BME280;50681;53.334;-6.536;2023-03-04T06:40:51;102750.81;;;3.65;100.00
64354;BME280;50681;53.334;-6.536;2023-03-04T06:43:17;102740.19;;;3.50;100.00
64354;BME280;50681;53.334;-6.536;2023-03-04T06:45:43;102741.91;;;3.58;100.00
64354;BME280;50681;53.334;-6.536;2023-03-04T06:48:08;102728.47;;;3.51;100.00
64354;BME280;50681;53.334;-6.536;2023-03-04T06:50:33;102749.63;;;3.67;100.00
64354;BME280;50681;53.334;-6.536;2023-03-04T06:52:59;102730.78;;;3.54;100.00
64354;BME280;50681;53.334;-6.536;2023-03-04T06:55:24;102747.72;;;3.61;100.00
64354;BME280;50681;53.334;-6.536;2023-03-04T06:57:50;102753.69;;;3.63;100.00
64354;BME280;50681;53.334;-6.536;2023-03-04T07:00:16;102760.31;;;3.67;100.00
64354;BME280;50681;53.334;-6.536;2023-03-04T07:02:42;102729.13;;;3.53;100.00
64354;BME280;50681;53.334;-6.536;2023-03-04T07:05:09;102730.56;;;3.56;100.00
64354;BME280;50681;53.334;-6.536;2023-03-04T07:07:35;102743.44;;;3.67;100.00
64354;BME280;50681;53.334;-6.536;2023-03-04T07:10:07;102716.88;;;3.44;100.00
64354;BME280;50681;53.334;-6.536;2023-03-04T07:12:34;102727.72;;;3.57;100.00
64354;BME280;50681;53.334;-6.536;2023-03-04T07:14:59;102728.75;;;3.56;100.00
64354;BME280;50681;53.334;-6.536;2023-03-04T07:17:25;102723.31;;;3.49;100.00
64354;BME280;50681;53.334;-6.536;2023-03-04T07:19:50;102737.78;;;3.55;100.00
64354;BME280;50681;53.334;-6.536;2023-03-04T07:22:16;102743.13;;;3.55;100.00
64354;BME280;50681;53.334;-6.536;2023-03-04T07:24:42;102737.88;;;3.47;100.00
64354;BME280;50681;53.334;-6.536;2023-03-04T07:27:07;102746.16;;;3.52;100.00
64354;BME280;50681;53.334;-6.536;2023-03-04T07:29:33;102733.19;;;3.49;100.00
64354;BME280;50681;53.334;-6.536;2023-03-04T07:31:58;102722.78;;;3.39;100.00
64354;BME280;50681;53.334;-6.536;2023-03-04T07:34:23;102737.03;;;3.46;100.00
64354;BME280;50681;53.334;-6.536;2023-03-04T07:36:49;102731.81;;;3.38;100.00
64354;BME280;50681;53.334;-6.536;2023-03-04T07:39:14;102751.56;;;3.59;100.00
64354;BME280;50681;53.334;-6.536;2023-03-04T07:41:40;102762.34;;;3.65;100.00
64354;BME280;50681;53.334;-6.536;2023-03-04T07:44:06;102746.88;;;3.61;100.00
64354;BME280;50681;53.334;-6.536;2023-03-04T07:46:33;102741.09;;;3.57;100.00
64354;BME280;50681;53.334;-6.536;2023-03-04T07:48:59;102740.34;;;3.63;100.00
64354;BME280;50681;53.334;-6.536;2023-03-04T07:51:25;102744.94;;;3.70;100.00
64354;BME280;50681;53.334;-6.536;2023-03-04T07:53:58;102751.34;;;3.75;100.00
64354;BME280;50681;53.334;-6.536;2023-03-04T07:56:28;102749.25;;;3.71;100.00
64354;BME280;50681;53.334;-6.536;2023-03-04T07:58:54;102750.06;;;3.71;100.00
64354;BME280;50681;53.334;-6.536;2023-03-04T08:01:31;102768.28;;;3.82;100.00
64354;BME280;50681;53.334;-6.536;2023-03-04T08:03:57;102783.78;;;3.87;100.00
64354;BME280;50681;53.334;-6.536;2023-03-04T08:06:23;102766.84;;;3.80;100.00
64354;BME280;50681;53.334;-6.536;2023-03-04T08:08:59;102781.72;;;3.89;100.00
64354;BME280;50681;53.334;-6.536;2023-03-04T08:11:26;102749.25;;;3.71;100.00
64354;BME280;50681;53.334;-6.536;2023-03-04T08:13:52;102776.75;;;3.86;100.00
64354;BME280;50681;53.334;-6.536;2023-03-04T08:16:20;102769.16;;;3.68;100.00
64354;BME280;50681;53.334;-6.536;2023-03-04T08:18:49;102783.63;;;3.74;100.00
64354;BME280;50681;53.334;-6.536;2023-03-04T08:21:15;102769.34;;;3.66;100.00
64354;BME280;50681;53.334;-6.536;2023-03-04T08:23:42;102762.34;;;3.65;100.00
64354;BME280;50681;53.334;-6.536;2023-03-04T08:26:17;102770.91;;;3.76;100.00
64354;BME280;50681;53.334;-6.536;2023-03-04T08:28:43;102770.97;;;3.82;100.00
64354;BME280;50681;53.334;-6.536;2023-03-04T08:31:11;102779.31;;;3.94;100.00
64354;BME280;50681;53.334;-6.536;2023-03-04T08:33:37;102766.50;;;3.90;100.00
64354;BME280;50681;53.334;-6.536;2023-03-04T08:36:03;102764.31;;;3.93;100.00
64354;BME280;50681;53.334;-6.536;2023-03-04T08:38:28;102752.06;;;3.84;100.00
64354;BME280;50681;53.334;-6.536;2023-03-04T08:40:56;102752.88;;;3.85;100.00
64354;BME280;50681;53.334;-6.536;2023-03-04T08:43:23;102774.28;;;4.06;100.00
64354;BME280;50681;53.334;-6.536;2023-03-04T08:45:49;102772.38;;;4.00;100.00
64354;BME280;50681;53.334;-6.536;2023-03-04T08:48:15;102761.00;;;3.91;100.00
64354;BME280;50681;53.334;-6.536;2023-03-04T08:50:43;102763.81;;;4.05;100.00
64354;BME280;50681;53.334;-6.536;2023-03-04T08:53:08;102768.81;;;4.15;100.00
64354;BME280;50681;53.334;-6.536;2023-03-04T08:55:33;102766.72;;;4.10;100.00
64354;BME280;50681;53.334;-6.536;2023-03-04T08:57:59;102762.72;;;4.21;100.00
64354;BME280;50681;53.334;-6.536;2023-03-04T09:00:24;102744.38;;;4.18;100.00
64354;BME280;50681;53.334;-6.536;2023-03-04T09:02:50;102758.31;;;4.35;100.00
64354;BME280;50681;53.334;-6.536;2023-03-04T09:05:15;102767.03;;;4.44;100.00
64354;BME280;50681;53.334;-6.536;2023-03-04T09:07:41;102754.88;;;4.41;100.00
64354;BME280;50681;53.334;-6.536;2023-03-04T09:10:07;102767.78;;;4.59;100.00
64354;BME280;50681;53.334;-6.536;2023-03-04T09:12:32;102772.94;;;4.61;100.00
64354;BME280;50681;53.334;-6.536;2023-03-04T09:14:58;102763.91;;;4.62;100.00
64354;BME280;50681;53.334;-6.536;2023-03-04T09:17:23;102768.53;;;4.53;100.00
64354;BME280;50681;53.334;-6.536;2023-03-04T09:19:49;102759.69;;;4.52;100.00
64354;BME280;50681;53.334;-6.536;2023-03-04T09:22:14;102760.13;;;4.56;100.00
64354;BME280;50681;53.334;-6.536;2023-03-04T09:24:40;102754.22;;;4.61;100.00
64354;BME280;50681;53.334;-6.536;2023-03-04T09:27:05;102749.88;;;4.60;100.00
64354;BME280;50681;53.334;-6.536;2023-03-04T09:29:30;102763.69;;;4.63;100.00
64354;BME280;50681;53.334;-6.536;2023-03-04T09:31:56;102775.09;;;4.72;100.00
64354;BME280;50681;53.334;-6.536;2023-03-04T09:34:21;102771.56;;;4.43;100.00
64354;BME280;50681;53.334;-6.536;2023-03-04T09:36:47;102765.47;;;4.56;100.00
64354;BME280;50681;53.334;-6.536;2023-03-04T09:39:12;102755.88;;;4.62;100.00
64354;BME280;50681;53.334;-6.536;2023-03-04T09:41:45;102770.41;;;4.52;100.00
64354;BME280;50681;53.334;-6.536;2023-03-04T09:44:47;102777.38;;;4.75;100.00
64354;BME280;50681;53.334;-6.536;2023-03-04T09:47:10;102761.41;;;4.60;100.00
64354;BME280;50681;53.334;-6.536;2023-03-04T09:49:39;102787.13;;;4.61;100.00
64354;BME280;50681;53.334;-6.536;2023-03-04T10:00:56;102773.81;;;4.68;100.00
64354;BME280;50681;53.334;-6.536;2023-03-04T10:03:44;102775.56;;;4.82;100.00
64354;BME280;50681;53.334;-6.536;2023-03-04T10:06:16;102780.19;;;4.95;100.00
64354;BME280;50681;53.334;-6.536;2023-03-04T10:16:59;102774.56;;;5.19;100.00
64354;BME280;50681;53.334;-6.536;2023-03-04T10:19:53;102754.31;;;5.09;100.00
64354;BME280;50681;53.334;-6.536;2023-03-04T10:22:28;102770.47;;;5.23;100.00
64354;BME280;50681;53.334;-6.536;2023-03-04T10:24:58;102773.97;;;5.23;100.00
64354;BME280;50681;53.334;-6.536;2023-03-04T10:27:23;102732.66;;;5.04;100.00
64354;BME280;50681;53.334;-6.536;2023-03-04T10:29:50;102762.75;;;5.06;100.00
64354;BME280;50681;53.334;-6.536;2023-03-04T10:32:18;102744.63;;;5.08;100.00
64354;BME280;50681;53.334;-6.536;2023-03-04T10:34:44;102735.34;;;5.04;100.00
64354;BME280;50681;53.334;-6.536;2023-03-04T10:37:09;102741.16;;;5.14;100.00
64354;BME280;50681;53.334;-6.536;2023-03-04T10:39:42;102742.81;;;5.15;100.00
64354;BME280;50681;53.334;-6.536;2023-03-04T10:44:50;102752.53;;;5.23;100.00
64354;BME280;50681;53.334;-6.536;2023-03-04T10:47:16;102737.47;;;5.22;100.00
64354;BME280;50681;53.334;-6.536;2023-03-04T10:49:58;102736.22;;;5.18;100.00
64354;BME280;50681;53.334;-6.536;2023-03-04T10:52:40;102743.06;;;5.27;100.00
64354;BME280;50681;53.334;-6.536;2023-03-04T10:55:23;102720.59;;;5.22;100.00
64354;BME280;50681;53.334;-6.536;2023-03-04T10:57:53;102711.53;;;5.23;100.00
64354;BME280;50681;53.334;-6.536;2023-03-04T11:00:33;102726.38;;;5.25;100.00
64354;BME280;50681;53.334;-6.536;2023-03-04T11:03:28;102746.63;;;5.41;100.00
64354;BME280;50681;53.334;-6.536;2023-03-04T11:08:39;102736.69;;;5.28;100.00
64354;BME280;50681;53.334;-6.536;2023-03-04T11:11:21;102744.72;;;5.28;100.00
64354;BME280;50681;53.334;-6.536;2023-03-04T11:13:54;102730.69;;;5.26;100.00
64354;BME280;50681;53.334;-6.536;2023-03-04T11:16:27;102747.69;;;5.47;100.00
64354;BME280;50681;53.334;-6.536;2023-03-04T11:18:59;102717.13;;;5.28;100.00
64354;BME280;50681;53.334;-6.536;2023-03-04T11:21:31;102733.44;;;5.40;100.00
64354;BME280;50681;53.334;-6.536;2023-03-04T11:24:13;102745.84;;;5.54;100.00
64354;BME280;50681;53.334;-6.536;2023-03-04T11:26:48;102732.25;;;5.56;100.00
64354;BME280;50681;53.334;-6.536;2023-03-04T11:29:47;102723.50;;;5.27;100.00
64354;BME280;50681;53.334;-6.536;2023-03-04T11:32:26;102744.41;;;5.52;100.00
64354;BME280;50681;53.334;-6.536;2023-03-04T11:43:16;102726.66;;;5.44;100.00
64354;BME280;50681;53.334;-6.536;2023-03-04T11:46:02;102720.72;;;5.62;100.00
64354;BME280;50681;53.334;-6.536;2023-03-04T11:56:57;102708.59;;;5.73;100.00
64354;BME280;50681;53.334;-6.536;2023-03-04T12:02:07;102710.09;;;5.96;100.00
64354;BME280;50681;53.334;-6.536;2023-03-04T12:04:56;102713.94;;;5.66;100.00
64354;BME280;50681;53.334;-6.536;2023-03-04T12:07:48;102710.88;;;5.96;100.00
64354;BME280;50681;53.334;-6.536;2023-03-04T12:20:58;102704.31;;;5.99;100.00
64354;BME280;50681;53.334;-6.536;2023-03-04T12:23:52;102701.44;;;6.00;100.00
64354;BME280;50681;53.334;-6.536;2023-03-04T12:34:30;102687.84;;;6.15;100.00
64354;BME280;50681;53.334;-6.536;2023-03-04T12:37:25;102700.00;;;6.18;100.00
64354;BME280;50681;53.334;-6.536;2023-03-04T12:43:07;102685.75;;;6.11;100.00
64354;BME280;50681;53.334;-6.536;2023-03-04T12:48:14;102681.22;;;6.18;100.00
64354;BME280;50681;53.334;-6.536;2023-03-04T12:56:36;102681.84;;;6.33;100.00
64354;BME280;50681;53.334;-6.536;2023-03-04T12:59:04;102669.47;;;6.19;100.00
64354;BME280;50681;53.334;-6.536;2023-03-04T13:19:47;102642.00;;;6.30;100.00
64354;BME280;50681;53.334;-6.536;2023-03-04T13:22:44;102604.25;;;5.92;100.00
64354;BME280;50681;53.334;-6.536;2023-03-04T13:25:30;102632.53;;;6.21;100.00
64354;BME280;50681;53.334;-6.536;2023-03-04T13:38:36;102598.81;;;6.52;100.00
64354;BME280;50681;53.334;-6.536;2023-03-04T13:41:22;102611.13;;;6.80;100.00
64354;BME280;50681;53.334;-6.536;2023-03-04T13:43:55;102597.56;;;6.68;100.00
64354;BME280;50681;53.334;-6.536;2023-03-04T13:51:30;102605.94;;;6.85;100.00
64354;BME280;50681;53.334;-6.536;2023-03-04T13:56:30;102576.22;;;6.80;100.00
64354;BME280;50681;53.334;-6.536;2023-03-04T13:59:21;102594.16;;;6.86;100.00
64354;BME280;50681;53.334;-6.536;2023-03-04T14:06:46;102582.19;;;6.82;100.00
64354;BME280;50681;53.334;-6.536;2023-03-04T14:09:18;102570.88;;;6.73;100.00
64354;BME280;50681;53.334;-6.536;2023-03-04T14:11:48;102582.25;;;6.75;100.00
64354;BME280;50681;53.334;-6.536;2023-03-04T14:14:21;102589.22;;;6.83;100.00
64354;BME280;50681;53.334;-6.536;2023-03-04T14:16:54;102584.88;;;6.82;100.00
64354;BME280;50681;53.334;-6.536;2023-03-04T14:19:52;102568.59;;;6.77;100.00
64354;BME280;50681;53.334;-6.536;2023-03-04T14:22:38;102563.13;;;6.45;100.00
64354;BME280;50681;53.334;-6.536;2023-03-04T14:27:33;102560.28;;;6.26;100.00
64354;BME280;50681;53.334;-6.536;2023-03-04T14:30:05;102571.78;;;6.47;100.00
64354;BME280;50681;53.334;-6.536;2023-03-04T14:32:31;102551.25;;;6.00;100.00
64354;BME280;50681;53.334;-6.536;2023-03-04T14:35:00;102534.16;;;6.08;100.00
64354;BME280;50681;53.334;-6.536;2023-03-04T14:37:34;102531.84;;;6.18;100.00
64354;BME280;50681;53.334;-6.536;2023-03-04T14:40:03;102566.88;;;6.30;100.00
64354;BME280;50681;53.334;-6.536;2023-03-04T14:42:40;102540.94;;;6.11;100.00
64354;BME280;50681;53.334;-6.536;2023-03-04T14:45:11;102526.09;;;6.01;100.00
64354;BME280;50681;53.334;-6.536;2023-03-04T14:55:25;102547.94;;;6.12;100.00
64354;BME280;50681;53.334;-6.536;2023-03-04T14:58:37;102552.88;;;6.15;100.00
64354;BME280;50681;53.334;-6.536;2023-03-04T15:00:38;102542.19;;;6.08;100.00